Time;durP1;ratioP1;P1;durP2;ratioP2;P2;SDS_P1;SDS_P2;PMS_P1;PMS_P2;Temp;Humidity;BMP_temperature;BMP_pressure;BME280_temperature;BME280_humidity;BME280_pressure;Samples;Min_cycle;Max_cycle;Signal;HPM_P1;HPM_P2
2022/03/15 00:00:39;;;;;;;6.32;2.60;;;7.40;99.90;;;;;;5041545;28;20025;-66
2022/03/15 00:03:04;;;;;;;7.95;2.38;;;7.30;99.90;;;;;;5035550;28;20480;-66
2022/03/15 00:05:30;;;;;;;8.05;2.00;;;7.30;99.90;;;;;;5033296;28;20559;-66
2022/03/15 00:07:56;;;;;;;8.63;2.55;;;7.30;99.90;;;;;;5038162;28;20080;-66
2022/03/15 00:10:22;;;;;;;8.52;2.72;;;7.30;99.90;;;;;;5034017;28;20304;-66
2022/03/15 00:12:48;;;;;;;12.38;4.28;;;7.20;99.90;;;;;;5037478;28;20104;-66
2022/03/15 00:15:14;;;;;;;14.05;3.08;;;7.20;99.90;;;;;;5044919;28;20104;-66
2022/03/15 00:17:42;;;;;;;9.32;3.20;;;7.00;99.90;;;;;;5039705;28;20082;-66
2022/03/15 00:20:11;;;;;;;7.60;2.45;;;7.00;99.90;;;;;;5046670;28;20646;-66
2022/03/15 00:22:37;;;;;;;7.93;2.90;;;7.00;99.90;;;;;;5038519;28;20048;-66
2022/03/15 00:25:05;;;;;;;10.02;3.08;;;6.90;99.90;;;;;;5038688;28;20024;-66
2022/03/15 00:27:31;;;;;;;8.57;2.72;;;6.80;99.90;;;;;;5036381;28;20057;-66
2022/03/15 00:29:57;;;;;;;8.32;3.47;;;6.70;99.90;;;;;;5037599;28;20041;-66
2022/03/15 00:32:23;;;;;;;11.50;3.15;;;6.70;99.90;;;;;;5041341;28;20515;-66
2022/03/15 00:34:49;;;;;;;6.80;2.20;;;6.60;99.90;;;;;;5035851;28;20060;-66
2022/03/15 00:37:15;;;;;;;9.85;2.88;;;6.60;99.90;;;;;;5047405;28;20108;-66
2022/03/15 00:39:41;;;;;;;4.60;2.20;;;6.50;99.90;;;;;;5040319;28;20021;-66
2022/03/15 00:42:07;;;;;;;6.22;2.25;;;6.50;99.90;;;;;;5039927;28;20535;-66
2022/03/15 00:44:33;;;;;;;5.25;1.80;;;6.60;99.90;;;;;;5040176;28;20021;-66
2022/03/15 00:46:59;;;;;;;13.02;2.70;;;6.70;99.90;;;;;;5039118;28;20557;-66
2022/03/15 00:49:25;;;;;;;5.82;2.05;;;6.80;99.90;;;;;;5042339;28;20029;-66
2022/03/15 00:51:51;;;;;;;5.57;2.80;;;6.90;99.90;;;;;;5034994;28;20048;-66
2022/03/15 00:54:17;;;;;;;5.07;2.58;;;6.90;99.90;;;;;;5048126;28;20473;-66
2022/03/15 00:56:43;;;;;;;8.52;2.63;;;6.90;99.90;;;;;;5041864;28;20024;-66
2022/03/15 00:59:09;;;;;;;8.00;3.22;;;6.80;99.90;;;;;;5036836;28;20102;-66
2022/03/15 01:01:36;;;;;;;7.45;2.55;;;6.80;99.90;;;;;;5047212;28;20021;-66
2022/03/15 01:04:02;;;;;;;6.95;2.80;;;6.80;99.90;;;;;;5038425;28;20037;-67
2022/03/15 01:06:28;;;;;;;3.65;1.90;;;6.80;99.90;;;;;;5042886;28;20024;-67
2022/03/15 01:08:54;;;;;;;16.65;2.35;;;6.90;99.90;;;;;;5037686;28;20338;-67
2022/03/15 01:11:20;;;;;;;7.07;2.72;;;6.70;99.90;;;;;;5039030;28;20025;-67
2022/03/15 01:13:45;;;;;;;7.68;2.40;;;6.80;99.90;;;;;;5042029;28;20470;-67
2022/03/15 01:16:11;;;;;;;5.18;2.30;;;6.70;99.90;;;;;;5038492;28;20484;-67
2022/03/15 01:18:37;;;;;;;10.32;3.05;;;6.60;99.90;;;;;;5046945;28;20372;-67
2022/03/15 01:21:03;;;;;;;11.25;3.28;;;6.50;99.90;;;;;;5044797;28;20036;-67
2022/03/15 01:23:28;;;;;;;8.23;3.15;;;6.30;99.90;;;;;;5045159;28;20452;-67
2022/03/15 01:25:55;;;;;;;8.02;2.97;;;6.30;99.90;;;;;;5035960;28;20037;-67
2022/03/15 01:28:21;;;;;;;7.43;2.65;;;6.30;99.90;;;;;;5035908;28;20084;-67
2022/03/15 01:30:46;;;;;;;16.90;3.33;;;6.30;99.90;;;;;;5041885;28;20053;-67
2022/03/15 01:33:12;;;;;;;8.70;2.40;;;6.30;99.90;;;;;;5035961;28;20037;-67
2022/03/15 01:35:38;;;;;;;6.53;2.47;;;6.50;99.90;;;;;;5047255;28;20475;-67
2022/03/15 01:38:03;;;;;;;7.75;3.63;;;6.60;99.90;;;;;;5044172;28;20052;-67
2022/03/15 01:40:29;;;;;;;7.22;3.10;;;6.70;99.90;;;;;;5039683;28;20116;-66
2022/03/15 01:42:55;;;;;;;5.07;2.25;;;6.80;99.90;;;;;;5043222;28;20064;-66
2022/03/15 01:45:34;;;;;;;8.65;3.40;;;6.90;99.90;;;;;;5042552;28;20052;-66
2022/03/15 01:48:00;;;;;;;7.32;2.58;;;7.00;99.90;;;;;;5042437;28;20029;-68
2022/03/15 01:50:25;;;;;;;4.97;1.98;;;7.10;99.90;;;;;;5038782;28;20029;-66
2022/03/15 01:52:51;;;;;;;6.38;3.20;;;7.20;99.90;;;;;;5042819;28;20051;-66
2022/03/15 01:55:16;;;;;;;14.40;3.40;;;7.20;99.90;;;;;;5037918;28;20525;-66
2022/03/15 01:57:42;;;;;;;6.55;2.00;;;7.20;99.90;;;;;;5040258;28;20021;-66
2022/03/15 02:00:08;;;;;;;4.85;2.58;;;7.30;99.90;;;;;;5038244;28;20052;-66
2022/03/15 02:02:34;;;;;;;5.22;2.05;;;7.20;99.90;;;;;;5047934;28;20147;-66
2022/03/15 02:05:00;;;;;;;7.25;2.17;;;7.20;99.90;;;;;;5037573;28;20104;-66
2022/03/15 02:07:25;;;;;;;5.85;2.42;;;7.10;99.90;;;;;;5039961;28;20029;-66
2022/03/15 02:09:52;;;;;;;5.65;2.22;;;7.10;99.90;;;;;;5037771;28;20041;-66
2022/03/15 02:12:17;;;;;;;4.05;2.15;;;7.00;99.90;;;;;;5036342;28;20061;-66
2022/03/15 02:14:43;;;;;;;5.47;1.70;;;7.00;99.90;;;;;;5053387;28;20071;-67
2022/03/15 02:17:08;;;;;;;7.43;3.05;;;6.90;99.90;;;;;;5048775;28;20013;-66
2022/03/15 02:19:36;;;;;;;5.05;2.05;;;7.00;99.90;;;;;;5043487;28;20024;-66
2022/03/15 02:22:02;;;;;;;6.32;2.17;;;7.00;99.90;;;;;;5040524;28;20036;-67
2022/03/15 02:24:27;;;;;;;4.15;2.10;;;7.10;99.90;;;;;;5045620;28;20025;-67
2022/03/15 02:26:53;;;;;;;8.63;2.90;;;7.10;99.90;;;;;;5041275;28;20024;-66
2022/03/15 02:29:20;;;;;;;5.78;2.25;;;7.10;99.90;;;;;;5043175;28;20029;-66
2022/03/15 02:31:45;;;;;;;6.93;2.28;;;7.10;99.90;;;;;;5042200;28;20098;-67
2022/03/15 02:34:11;;;;;;;7.40;2.70;;;7.10;99.90;;;;;;5035532;28;20033;-66
2022/03/15 02:36:38;;;;;;;4.82;2.25;;;7.10;99.90;;;;;;5040299;28;20033;-66
2022/03/15 02:39:04;;;;;;;4.90;1.92;;;7.20;99.90;;;;;;5046132;28;20404;-66
2022/03/15 02:41:29;;;;;;;5.50;2.55;;;7.20;99.90;;;;;;5039732;28;20030;-66
2022/03/15 02:43:58;;;;;;;7.72;2.75;;;7.10;99.90;;;;;;5039808;28;20481;-66
2022/03/15 02:46:30;;;;;;;15.68;2.33;;;7.10;99.90;;;;;;5043922;28;20036;-66
2022/03/15 02:48:59;;;;;;;5.63;2.67;;;7.10;99.90;;;;;;5042965;28;20033;-67
2022/03/15 02:51:25;;;;;;;8.00;2.45;;;7.10;99.90;;;;;;5039106;28;20116;-66
2022/03/15 02:53:53;;;;;;;7.15;2.42;;;7.10;99.90;;;;;;5038193;28;20659;-66
2022/03/15 02:56:19;;;;;;;6.43;2.03;;;7.10;99.90;;;;;;5051207;28;20028;-66
2022/03/15 02:58:44;;;;;;;6.78;2.20;;;7.20;99.90;;;;;;5040929;28;20021;-66
2022/03/15 03:01:10;;;;;;;7.47;2.30;;;7.20;99.90;;;;;;5043141;28;20021;-66
2022/03/15 03:03:36;;;;;;;8.70;2.65;;;7.30;99.90;;;;;;5045724;28;20026;-66
2022/03/15 03:06:02;;;;;;;9.02;2.83;;;7.30;99.90;;;;;;5052342;28;20481;-66
2022/03/15 03:08:28;;;;;;;5.32;1.73;;;7.40;99.90;;;;;;5048149;28;20112;-67
2022/03/15 03:10:55;;;;;;;5.93;2.72;;;7.30;99.90;;;;;;5040022;28;20037;-67
2022/03/15 03:13:27;;;;;;;6.53;2.58;;;7.20;99.90;;;;;;5045650;28;20017;-66
2022/03/15 03:15:57;;;;;;;6.25;2.47;;;7.20;99.90;;;;;;5045545;28;20032;-66
2022/03/15 03:18:23;;;;;;;6.40;1.80;;;7.20;99.90;;;;;;5042014;28;20508;-66
2022/03/15 03:20:50;;;;;;;8.55;2.35;;;7.20;99.90;;;;;;5048527;28;20282;-67
2022/03/15 03:23:17;;;;;;;5.93;2.03;;;7.20;99.90;;;;;;5046173;28;20374;-67
2022/03/15 03:25:43;;;;;;;6.03;2.05;;;7.20;99.90;;;;;;5049726;28;20028;-66
2022/03/15 03:28:09;;;;;;;6.80;2.42;;;7.20;99.90;;;;;;5039605;28;20694;-66
2022/03/15 03:30:38;;;;;;;4.40;2.17;;;7.20;99.90;;;;;;5037885;28;21634;-66
2022/03/15 03:33:04;;;;;;;11.52;2.63;;;7.20;99.90;;;;;;5040980;28;20540;-67
2022/03/15 03:35:30;;;;;;;4.32;1.63;;;7.10;99.90;;;;;;5045825;28;20554;-67
2022/03/15 03:37:56;;;;;;;4.07;1.95;;;7.00;99.90;;;;;;5048407;28;20044;-67
2022/03/15 03:40:21;;;;;;;7.20;2.78;;;7.00;99.90;;;;;;5042243;28;20024;-67
2022/03/15 03:42:47;;;;;;;5.78;1.90;;;6.90;99.90;;;;;;5044404;28;20029;-67
2022/03/15 03:45:13;;;;;;;6.20;2.90;;;6.90;99.90;;;;;;5038625;28;20569;-67
2022/03/15 03:47:38;;;;;;;5.25;2.65;;;6.80;99.90;;;;;;5048870;28;20844;-66
2022/03/15 03:50:08;;;;;;;8.68;2.75;;;6.80;99.90;;;;;;5044095;28;20030;-66
2022/03/15 03:52:33;;;;;;;7.65;2.22;;;6.70;99.90;;;;;;5042507;28;20041;-66
2022/03/15 03:55:00;;;;;;;4.63;2.10;;;6.60;99.90;;;;;;5046461;28;20401;-66
2022/03/15 03:57:25;;;;;;;7.07;2.40;;;6.70;99.90;;;;;;5046729;28;20036;-66
2022/03/15 03:59:51;;;;;;;8.45;2.17;;;6.60;99.90;;;;;;5043035;28;20028;-66
2022/03/15 04:02:17;;;;;;;8.13;2.60;;;6.60;99.90;;;;;;5042647;28;20018;-66
2022/03/15 04:04:43;;;;;;;6.10;1.98;;;6.60;99.90;;;;;;5033592;28;20099;-66
2022/03/15 04:07:11;;;;;;;6.80;2.22;;;6.60;99.90;;;;;;5038024;28;20045;-66
2022/03/15 04:09:37;;;;;;;6.90;2.78;;;6.40;99.90;;;;;;5040306;28;20017;-66
2022/03/15 04:12:05;;;;;;;9.07;2.75;;;6.40;99.90;;;;;;5031309;28;20025;-66
2022/03/15 04:14:30;;;;;;;5.75;2.42;;;6.40;99.90;;;;;;5038824;28;20032;-66
2022/03/15 04:16:56;;;;;;;6.43;2.05;;;6.20;99.90;;;;;;5045804;28;20025;-66
2022/03/15 04:19:21;;;;;;;5.22;2.03;;;6.20;99.90;;;;;;5043492;28;20027;-66
2022/03/15 04:21:47;;;;;;;6.13;2.50;;;6.10;99.90;;;;;;5045796;28;20052;-66
2022/03/15 04:24:14;;;;;;;8.23;2.42;;;6.00;99.90;;;;;;5045030;28;20036;-66
2022/03/15 04:26:41;;;;;;;6.78;2.75;;;5.90;99.90;;;;;;5037460;28;20029;-66
2022/03/15 04:29:06;;;;;;;5.55;2.25;;;6.10;99.90;;;;;;5035861;28;20104;-66
2022/03/15 04:31:32;;;;;;;11.30;3.33;;;6.10;99.90;;;;;;5038751;28;20144;-66
2022/03/15 04:33:58;;;;;;;9.40;2.42;;;6.10;99.90;;;;;;5046278;28;20040;-66
2022/03/15 04:36:23;;;;;;;7.55;2.65;;;6.10;99.90;;;;;;5044650;28;20033;-68
2022/03/15 04:38:49;;;;;;;5.68;2.15;;;6.20;99.90;;;;;;5036324;28;20025;-67
2022/03/15 04:41:15;;;;;;;3.72;1.52;;;6.40;99.90;;;;;;5031155;28;20053;-66
2022/03/15 04:43:40;;;;;;;4.15;1.90;;;6.50;99.90;;;;;;5038211;28;20053;-66
2022/03/15 04:46:07;;;;;;;6.10;2.00;;;6.70;99.90;;;;;;5037214;28;20041;-66
2022/03/15 04:48:32;;;;;;;4.45;1.83;;;6.70;99.90;;;;;;5041187;28;20030;-66
2022/03/15 04:50:58;;;;;;;4.18;1.92;;;6.80;99.90;;;;;;5037543;28;20037;-66
2022/03/15 04:53:24;;;;;;;9.27;2.92;;;6.90;99.90;;;;;;5032806;28;20033;-67
2022/03/15 04:55:49;;;;;;;3.55;1.90;;;7.00;99.90;;;;;;5038082;28;20323;-66
2022/03/15 04:58:15;;;;;;;3.45;1.52;;;7.00;99.90;;;;;;5038358;28;20024;-66
2022/03/15 05:00:41;;;;;;;3.90;1.73;;;7.10;99.90;;;;;;5038118;28;20031;-66
2022/03/15 05:03:07;;;;;;;6.35;2.50;;;7.10;99.90;;;;;;5036426;28;20036;-67
2022/03/15 05:05:32;;;;;;;4.55;1.75;;;7.10;99.90;;;;;;5037148;28;20083;-67
2022/03/15 05:07:58;;;;;;;8.63;2.00;;;7.10;99.90;;;;;;5037383;28;20459;-68
2022/03/15 05:13:08;;;;;;;6.60;2.85;;;7.10;99.90;;;;;;5035923;28;20681;-67
2022/03/15 05:15:34;;;;;;;4.00;1.98;;;7.00;99.90;;;;;;5034031;28;20025;-67
2022/03/15 05:18:01;;;;;;;7.35;2.03;;;6.80;99.90;;;;;;5050813;28;20036;-67
2022/03/15 05:20:29;;;;;;;5.75;2.00;;;6.70;99.90;;;;;;5040115;28;20025;-67
2022/03/15 05:22:55;;;;;;;3.72;1.92;;;6.50;99.90;;;;;;5027977;28;20409;-67
2022/03/15 05:25:21;;;;;;;9.45;2.30;;;6.40;99.90;;;;;;5027254;28;20029;-67
2022/03/15 05:27:47;;;;;;;6.90;1.70;;;6.20;99.90;;;;;;5030896;28;20033;-67
2022/03/15 05:30:12;;;;;;;7.82;2.00;;;6.10;99.90;;;;;;5032346;28;20456;-67
2022/03/15 05:32:39;;;;;;;5.43;1.90;;;6.10;99.90;;;;;;5031906;28;20087;-67
2022/03/15 05:35:05;;;;;;;5.03;1.60;;;6.00;99.90;;;;;;5027149;28;20050;-67
2022/03/15 05:37:31;;;;;;;9.32;1.85;;;5.90;99.90;;;;;;5044043;28;20028;-67
2022/03/15 05:39:57;;;;;;;4.70;1.83;;;6.00;99.90;;;;;;5037727;28;20521;-67
2022/03/15 05:42:22;;;;;;;6.13;2.33;;;6.00;99.90;;;;;;5039701;28;20082;-68
2022/03/15 05:44:49;;;;;;;6.07;2.42;;;5.90;99.90;;;;;;5040240;28;20507;-67
2022/03/15 05:47:14;;;;;;;10.30;2.42;;;5.90;99.90;;;;;;5038606;28;20100;-67
2022/03/15 05:49:40;;;;;;;4.47;2.20;;;5.90;99.90;;;;;;5052100;28;20104;-67
2022/03/15 05:52:07;;;;;;;2.22;1.33;;;5.90;99.90;;;;;;5041221;28;20364;-67
2022/03/15 05:54:34;;;;;;;5.63;2.10;;;6.00;99.90;;;;;;5042032;28;20035;-67
2022/03/15 05:57:00;;;;;;;4.68;2.15;;;6.10;99.90;;;;;;5038519;28;20033;-67
2022/03/15 05:59:25;;;;;;;3.10;2.05;;;6.20;99.90;;;;;;5038217;28;20035;-67
2022/03/15 06:01:51;;;;;;;6.13;2.67;;;6.20;99.90;;;;;;5039514;28;20025;-67
2022/03/15 06:04:17;;;;;;;6.90;2.22;;;6.20;99.90;;;;;;5044795;28;20596;-67
2022/03/15 06:06:43;;;;;;;3.97;1.75;;;6.30;99.90;;;;;;5037181;28;20366;-67
2022/03/15 06:09:09;;;;;;;13.82;2.20;;;6.30;99.90;;;;;;5040835;28;20025;-67
2022/03/15 06:11:39;;;;;;;6.05;2.20;;;6.40;99.90;;;;;;5033992;28;20037;-67
2022/03/15 06:14:05;;;;;;;5.10;2.03;;;6.40;99.90;;;;;;5041157;28;20110;-67
2022/03/15 06:16:31;;;;;;;6.15;2.50;;;6.50;99.90;;;;;;5037918;28;20083;-67
2022/03/15 06:18:56;;;;;;;9.18;3.42;;;6.50;99.90;;;;;;5047912;28;20393;-67
2022/03/15 06:21:23;;;;;;;6.30;2.90;;;6.50;99.90;;;;;;5049446;28;20026;-67
2022/03/15 06:23:49;;;;;;;6.95;2.67;;;6.60;99.90;;;;;;5042606;28;20038;-67
2022/03/15 06:26:15;;;;;;;12.65;3.03;;;6.80;99.90;;;;;;5052578;28;20369;-67
2022/03/15 06:28:41;;;;;;;9.35;2.45;;;6.70;99.90;;;;;;5043459;28;20353;-67
2022/03/15 06:31:07;;;;;;;10.30;2.70;;;6.60;99.90;;;;;;5040689;28;20519;-67
2022/03/15 06:33:33;;;;;;;8.57;2.85;;;6.70;99.90;;;;;;5037331;28;20025;-67
2022/03/15 06:35:58;;;;;;;9.30;2.70;;;6.70;99.90;;;;;;5043151;28;20386;-67
2022/03/15 06:38:24;;;;;;;7.80;2.97;;;6.70;99.90;;;;;;5048174;28;20059;-67
2022/03/15 06:40:52;;;;;;;10.57;3.17;;;6.70;99.90;;;;;;5039852;28;20029;-67
2022/03/15 06:43:19;;;;;;;12.10;3.17;;;6.60;99.90;;;;;;5039332;28;20048;-67
2022/03/15 06:45:46;;;;;;;10.30;2.75;;;6.60;99.90;;;;;;5038492;28;20033;-67
2022/03/15 06:48:12;;;;;;;5.45;2.85;;;6.70;99.90;;;;;;5036710;28;20397;-67
2022/03/15 06:50:39;;;;;;;7.05;1.95;;;6.70;99.90;;;;;;5033936;28;20026;-67
2022/03/15 06:53:05;;;;;;;6.88;2.25;;;6.90;99.90;;;;;;5039839;28;20025;-67
2022/03/15 06:55:32;;;;;;;6.65;3.22;;;7.00;99.90;;;;;;5035641;28;20044;-67
2022/03/15 06:57:59;;;;;;;7.78;2.25;;;7.00;99.90;;;;;;5034421;28;20029;-67
2022/03/15 07:00:24;;;;;;;4.60;1.98;;;7.10;99.90;;;;;;5036977;28;20061;-67
2022/03/15 07:02:50;;;;;;;5.28;2.55;;;7.10;99.90;;;;;;5042334;28;20387;-67
2022/03/15 07:05:16;;;;;;;7.68;2.83;;;7.10;99.90;;;;;;5036349;28;20108;-67
2022/03/15 07:07:41;;;;;;;10.60;2.88;;;7.20;99.90;;;;;;5033668;28;20033;-67
2022/03/15 07:10:09;;;;;;;6.55;2.40;;;7.20;99.90;;;;;;5040030;28;20029;-67
2022/03/15 07:12:35;;;;;;;6.55;2.85;;;7.30;99.90;;;;;;5041691;28;20083;-67
2022/03/15 07:15:03;;;;;;;6.28;2.17;;;7.40;99.90;;;;;;5030433;28;20033;-67
2022/03/15 07:17:32;;;;;;;5.90;2.45;;;7.30;99.90;;;;;;5030847;28;20091;-67
2022/03/15 07:19:59;;;;;;;5.07;1.88;;;7.50;99.90;;;;;;5027079;28;20545;-67
2022/03/15 07:22:25;;;;;;;7.90;2.53;;;7.50;99.90;;;;;;5039191;28;20017;-67
2022/03/15 07:24:51;;;;;;;7.53;2.33;;;7.60;99.90;;;;;;5024723;28;20026;-67
2022/03/15 07:27:18;;;;;;;4.72;1.80;;;7.60;99.90;;;;;;5030290;28;20017;-67
2022/03/15 07:29:44;;;;;;;3.80;1.73;;;7.70;99.90;;;;;;5028708;28;20094;-66
2022/03/15 07:32:09;;;;;;;6.43;2.80;;;7.70;99.90;;;;;;5035167;28;20040;-66
2022/03/15 07:34:35;;;;;;;8.30;2.60;;;7.70;99.90;;;;;;5029984;28;20395;-66
2022/03/15 07:37:01;;;;;;;3.95;1.67;;;7.80;99.90;;;;;;5029605;28;20041;-66
2022/03/15 07:39:27;;;;;;;7.03;1.88;;;7.90;99.90;;;;;;5036063;28;20041;-66
2022/03/15 07:41:53;;;;;;;4.75;2.20;;;8.00;99.90;;;;;;5033720;28;20030;-66
2022/03/15 07:44:19;;;;;;;7.60;2.15;;;8.10;99.90;;;;;;5032590;28;20021;-66
2022/03/15 07:46:53;;;;;;;7.18;2.05;;;8.20;99.90;;;;;;5037967;28;20373;-66
2022/03/15 07:49:20;;;;;;;2.70;1.27;;;8.30;99.90;;;;;;5034778;28;20036;-68
2022/03/15 07:51:47;;;;;;;6.10;2.20;;;8.40;99.90;;;;;;5032843;28;20025;-67
2022/03/15 07:54:15;;;;;;;3.70;1.80;;;8.40;99.90;;;;;;5026024;28;20227;-67
2022/03/15 07:56:41;;;;;;;8.18;2.08;;;8.50;99.90;;;;;;5025266;28;20021;-67
2022/03/15 07:59:06;;;;;;;6.85;2.35;;;8.40;99.90;;;;;;5022399;28;20123;-67
2022/03/15 08:01:32;;;;;;;6.50;2.22;;;8.50;99.90;;;;;;5036920;28;20059;-67
2022/03/15 08:03:58;;;;;;;6.82;2.10;;;8.50;99.90;;;;;;5030629;28;20436;-67
2022/03/15 08:06:23;;;;;;;4.57;1.63;;;8.50;99.90;;;;;;5043912;28;20486;-67
2022/03/15 08:08:49;;;;;;;6.32;2.10;;;8.50;99.90;;;;;;5044378;28;20112;-67
2022/03/15 08:11:15;;;;;;;5.50;1.83;;;8.50;99.90;;;;;;5046594;28;20039;-67
2022/03/15 08:13:41;;;;;;;7.47;2.35;;;8.60;99.90;;;;;;5040803;28;20482;-68
2022/03/15 08:16:06;;;;;;;5.80;1.75;;;8.60;99.90;;;;;;5040120;28;20030;-67
2022/03/15 08:18:33;;;;;;;16.83;2.10;;;8.70;99.90;;;;;;5043891;28;20491;-67
2022/03/15 08:20:59;;;;;;;5.43;2.20;;;8.80;99.90;;;;;;5045971;28;20024;-68
2022/03/15 08:23:27;;;;;;;7.25;2.10;;;8.80;99.90;;;;;;5042442;28;20548;-67
2022/03/15 08:25:55;;;;;;;4.60;2.13;;;8.90;99.90;;;;;;5041239;28;20029;-68
2022/03/15 08:28:21;;;;;;;7.50;2.35;;;9.10;99.90;;;;;;5040462;28;20025;-68
2022/03/15 08:30:47;;;;;;;8.48;2.13;;;9.30;99.90;;;;;;5038661;28;20045;-68
2022/03/15 08:33:12;;;;;;;8.25;2.00;;;9.50;99.90;;;;;;5036883;28;20025;-68
2022/03/15 08:35:38;;;;;;;4.88;2.05;;;9.50;99.90;;;;;;5037768;28;20034;-68
2022/03/15 08:38:04;;;;;;;3.22;1.25;;;9.60;99.90;;;;;;5042364;28;20508;-68
2022/03/15 08:40:29;;;;;;;9.07;2.08;;;9.80;99.90;;;;;;5036939;28;20128;-68
2022/03/15 08:42:55;;;;;;;3.90;1.52;;;9.90;99.90;;;;;;5037517;28;20022;-68
2022/03/15 08:45:20;;;;;;;3.00;1.10;;;10.10;99.90;;;;;;5035874;28;20393;-67
2022/03/15 08:47:46;;;;;;;3.67;1.63;;;10.00;99.90;;;;;;5043080;28;20040;-68
2022/03/15 08:50:12;;;;;;;4.38;1.58;;;10.20;99.90;;;;;;5044024;28;20063;-68
2022/03/15 08:52:38;;;;;;;2.60;1.20;;;10.50;99.90;;;;;;5035352;28;20066;-68
2022/03/15 08:55:04;;;;;;;6.20;1.85;;;10.60;99.90;;;;;;5042329;28;20028;-68
2022/03/15 08:57:30;;;;;;;5.55;1.63;;;10.50;99.90;;;;;;5041187;28;20815;-67
2022/03/15 08:59:56;;;;;;;4.63;1.67;;;10.40;99.90;;;;;;5030548;28;20611;-68
2022/03/15 09:02:22;;;;;;;3.70;1.45;;;10.60;99.90;;;;;;5036525;28;20041;-66
2022/03/15 09:04:48;;;;;;;5.22;1.90;;;10.60;99.90;;;;;;5039597;28;20533;-67
2022/03/15 09:07:13;;;;;;;5.53;1.92;;;10.60;99.90;;;;;;5041630;28;20079;-68
2022/03/15 09:09:39;;;;;;;5.30;1.42;;;10.60;99.90;;;;;;5038109;28;20049;-68
2022/03/15 09:12:05;;;;;;;3.38;1.42;;;10.80;99.90;;;;;;5044315;28;20476;-68
2022/03/15 09:14:32;;;;;;;4.20;1.33;;;11.00;99.90;;;;;;5041308;28;20048;-66
2022/03/15 09:16:58;;;;;;;5.47;1.30;;;11.20;99.90;;;;;;5041267;28;20033;-67
2022/03/15 09:19:24;;;;;;;6.60;1.60;;;11.00;99.90;;;;;;5041219;28;20049;-66
2022/03/15 09:21:51;;;;;;;3.70;1.65;;;11.00;99.90;;;;;;5046570;28;20115;-67
2022/03/15 09:24:16;;;;;;;7.95;1.88;;;10.80;99.90;;;;;;5047498;28;20119;-67
2022/03/15 09:26:42;;;;;;;3.90;1.40;;;10.70;99.90;;;;;;5044629;28;20548;-68
2022/03/15 09:29:12;;;;;;;6.05;1.73;;;10.80;99.90;;;;;;5039546;28;20116;-66
2022/03/15 09:31:38;;;;;;;8.10;1.88;;;10.90;99.90;;;;;;5038352;28;20079;-67
2022/03/15 09:34:04;;;;;;;5.45;2.38;;;10.90;99.90;;;;;;5044922;28;20041;-68
2022/03/15 09:36:30;;;;;;;5.63;1.67;;;10.80;99.90;;;;;;5042862;28;20046;-68
2022/03/15 09:38:56;;;;;;;5.32;1.50;;;10.80;99.90;;;;;;5050020;28;20087;-66
2022/03/15 09:41:25;;;;;;;2.83;1.20;;;11.00;99.90;;;;;;5041517;28;20035;-66
2022/03/15 09:43:53;;;;;;;7.75;1.92;;;11.10;99.90;;;;;;5044613;28;20060;-66
2022/03/15 09:46:21;;;;;;;7.88;2.10;;;11.30;99.90;;;;;;5049208;28;20091;-66
2022/03/15 09:48:52;;;;;;;9.13;1.92;;;10.80;99.90;;;;;;5043597;28;20086;-67
2022/03/15 09:51:18;;;;;;;5.53;1.98;;;10.80;99.90;;;;;;5048538;28;20047;-65
2022/03/15 09:53:46;;;;;;;5.78;1.80;;;10.70;99.90;;;;;;5039054;28;20124;-66
2022/03/15 09:56:14;;;;;;;5.75;1.85;;;10.90;99.90;;;;;;5043085;28;20057;-68
2022/03/15 09:58:40;;;;;;;5.45;2.00;;;10.90;99.90;;;;;;5038998;28;20072;-68
2022/03/15 10:01:06;;;;;;;7.28;1.80;;;11.00;99.90;;;;;;5047585;28;20569;-68
2022/03/15 10:03:32;;;;;;;7.20;1.85;;;11.00;99.90;;;;;;5041192;28;20393;-68
2022/03/15 10:05:57;;;;;;;6.78;1.88;;;11.10;99.90;;;;;;5057270;28;20506;-68
2022/03/15 10:08:23;;;;;;;4.65;1.40;;;11.50;99.90;;;;;;5042542;28;20043;-68
2022/03/15 10:10:51;;;;;;;7.82;1.88;;;11.30;99.90;;;;;;5041241;28;20163;-66
2022/03/15 10:13:17;;;;;;;4.28;1.42;;;11.40;99.90;;;;;;5041628;28;20488;-67
2022/03/15 10:15:55;;;;;;;7.60;1.50;;;11.80;99.90;;;;;;5049788;28;20029;-67
2022/03/15 10:18:21;;;;;;;7.15;2.13;;;11.60;99.90;;;;;;5045665;28;20250;-66
2022/03/15 10:20:47;;;;;;;4.72;1.80;;;11.70;99.90;;;;;;5045842;28;20108;-68
2022/03/15 10:23:15;;;;;;;6.50;1.60;;;11.80;99.90;;;;;;5043081;28;20055;-67
2022/03/15 10:25:49;;;;;;;4.57;1.77;;;11.90;99.90;;;;;;5039284;28;20670;-68
2022/03/15 10:28:15;;;;;;;6.40;1.60;;;11.90;99.90;;;;;;5050108;28;20038;-67
2022/03/15 10:30:41;;;;;;;9.80;1.67;;;11.80;99.90;;;;;;5041069;28;20059;-68
2022/03/15 10:33:07;;;;;;;10.13;1.90;;;11.70;99.90;;;;;;5041646;28;20025;-68
2022/03/15 10:35:39;;;;;;;13.02;2.20;;;11.70;99.90;;;;;;5044840;28;20076;-66
2022/03/15 10:38:06;;;;;;;6.07;1.58;;;11.80;99.90;;;;;;5041817;28;20108;-67
2022/03/15 10:40:35;;;;;;;8.40;2.63;;;11.70;99.90;;;;;;5041686;28;20060;-66
2022/03/15 10:43:10;;;;;;;6.47;2.45;;;11.80;99.90;;;;;;5046247;28;20036;-68
2022/03/15 10:45:39;;;;;;;6.38;2.00;;;11.70;99.90;;;;;;5060849;28;20029;-68
2022/03/15 10:48:26;;;;;;;6.03;2.17;;;11.80;99.90;;;;;;5045126;28;20025;-68
2022/03/15 10:50:57;;;;;;;5.45;1.95;;;12.00;99.90;;;;;;5039343;28;20041;-68
2022/03/15 10:53:25;;;;;;;5.53;1.75;;;11.90;99.90;;;;;;5036634;28;20103;-68
2022/03/15 10:56:07;;;;;;;5.57;1.90;;;12.30;99.90;;;;;;5038759;28;20020;-67
2022/03/15 10:58:34;;;;;;;6.80;1.90;;;12.50;99.90;;;;;;5034659;28;20116;-68
2022/03/15 11:00:59;;;;;;;7.43;2.10;;;12.60;99.90;;;;;;5038203;28;20029;-68
2022/03/15 11:03:29;;;;;;;6.28;1.95;;;12.00;99.90;;;;;;5036015;28;20040;-68
2022/03/15 11:05:57;;;;;;;7.95;2.35;;;12.20;99.90;;;;;;5037030;28;20342;-68
2022/03/15 11:08:23;;;;;;;10.75;2.10;;;12.10;99.90;;;;;;5043389;28;20033;-68
2022/03/15 11:10:53;;;;;;;6.03;2.00;;;12.10;99.90;;;;;;5042982;28;20059;-68
2022/03/15 11:13:26;;;;;;;;;;;12.20;99.90;;;;;;5041722;28;20021;-68
2022/03/15 11:15:53;;;;;;;10.07;2.00;;;12.20;99.90;;;;;;5034893;28;19912;-68
2022/03/15 11:18:19;;;;;;;5.63;1.95;;;12.20;99.90;;;;;;5041623;28;20706;-68
2022/03/15 11:20:49;;;;;;;7.45;2.15;;;12.30;99.90;;;;;;5045951;28;20056;-68
2022/03/15 11:23:16;;;;;;;7.97;2.45;;;12.70;99.90;;;;;;5042558;28;20037;-68
2022/03/15 11:25:43;;;;;;;5.90;2.00;;;12.50;99.90;;;;;;5046779;28;20017;-68
2022/03/15 11:28:23;;;;;;;9.45;2.00;;;12.60;99.90;;;;;;5034246;28;20108;-68
2022/03/15 11:30:51;;;;;;;5.45;1.90;;;12.80;99.90;;;;;;5044724;28;20045;-68
2022/03/15 11:33:17;;;;;;;8.30;2.35;;;12.70;99.90;;;;;;5048437;28;20057;-68
2022/03/15 11:35:42;;;;;;;7.32;2.45;;;12.70;99.90;;;;;;5044400;28;20056;-68
2022/03/15 11:38:10;;;;;;;7.97;1.73;;;12.70;99.90;;;;;;5043384;28;20422;-68
2022/03/15 11:40:36;;;;;;;5.53;2.05;;;12.90;99.90;;;;;;5048248;28;20056;-68
2022/03/15 11:43:19;;;;;;;7.63;2.00;;;12.90;99.90;;;;;;5040697;28;20389;-68
2022/03/15 11:45:55;;;;;;;11.80;2.58;;;13.00;99.90;;;;;;5038270;28;20037;-68
2022/03/15 11:48:42;;;;;;;4.93;1.90;;;13.00;99.90;;;;;;5042772;28;20060;-68
2022/03/15 11:51:17;;;;;;;4.45;1.70;;;13.00;99.90;;;;;;5041356;28;20119;-68
2022/03/15 11:54:01;;;;;;;4.10;1.55;;;13.20;99.90;;;;;;5042962;28;20032;-68
2022/03/15 11:56:48;;;;;;;5.75;1.75;;;13.20;99.90;;;;;;5038054;28;20032;-69
2022/03/15 11:59:14;;;;;;;7.05;2.00;;;13.10;99.90;;;;;;5039866;28;20638;-66
2022/03/15 12:01:48;;;;;;;12.65;1.73;;;13.00;99.90;;;;;;5035802;28;20017;-66
2022/03/15 12:04:15;;;;;;;4.10;1.58;;;12.90;99.90;;;;;;5042450;28;20028;-66
2022/03/15 12:07:00;;;;;;;10.40;2.10;;;12.80;99.90;;;;;;5035834;28;20071;-66
2022/03/15 12:09:32;;;;;;;6.82;2.10;;;13.00;99.90;;;;;;5043797;28;20292;-66
2022/03/15 12:12:09;;;;;;;8.73;1.77;;;12.80;99.90;;;;;;5035541;28;20120;-66
2022/03/15 12:14:41;;;;;;;3.80;1.60;;;12.70;99.90;;;;;;5042264;28;20115;-68
2022/03/15 12:17:07;;;;;;;9.35;1.75;;;13.20;99.90;;;;;;5035467;28;20039;-68
2022/03/15 12:19:50;;;;;;;5.80;1.90;;;13.00;99.90;;;;;;5035705;28;20499;-68
2022/03/15 12:22:26;;;;;;;6.05;1.98;;;13.00;99.90;;;;;;5045569;28;20606;-66
2022/03/15 12:25:32;;;;;;;3.97;1.40;;;13.10;99.90;;;;;;5040750;28;20373;-66
2022/03/15 12:28:04;;;;;;;5.53;1.95;;;13.00;99.90;;;;;;5026412;28;20639;-66
2022/03/15 12:30:30;;;;;;;4.25;1.58;;;13.00;99.90;;;;;;5034261;28;20037;-66
2022/03/15 12:32:57;;;;;;;5.85;1.63;;;12.80;99.90;;;;;;5040696;28;20120;-66
2022/03/15 12:35:28;;;;;;;2.97;1.27;;;12.90;99.90;;;;;;5039041;28;20021;-66
2022/03/15 12:38:11;;;;;;;4.10;1.63;;;12.90;99.90;;;;;;5033947;28;20120;-66
2022/03/15 12:40:44;;;;;;;8.63;1.60;;;12.90;99.90;;;;;;5029229;28;20482;-68
2022/03/15 12:43:21;;;;;;;3.47;1.20;;;12.70;99.90;;;;;;5034971;28;20106;-67
2022/03/15 12:45:48;;;;;;;4.47;1.45;;;12.70;99.90;;;;;;5033607;28;20032;-68
2022/03/15 12:48:17;;;;;;;7.90;1.38;;;12.90;99.90;;;;;;5041187;28;20028;-66
2022/03/15 12:50:42;;;;;;;3.72;1.30;;;12.90;99.90;;;;;;5040123;28;20041;-66
2022/03/15 12:53:14;;;;;;;5.28;1.75;;;13.30;99.90;;;;;;5036711;28;20146;-66
2022/03/15 12:55:42;;;;;;;6.80;1.80;;;13.30;99.90;;;;;;5036713;28;20100;-66